createdAt,value
2022-10-14T00:01:08.789Z,16.10
2022-10-14T00:03:37.842Z,14.50
2022-10-14T00:06:16.847Z,17.50
2022-10-14T00:08:44.789Z,16.63
2022-10-14T00:11:17.631Z,14.97
2022-10-14T00:13:45.460Z,14.37
2022-10-14T00:16:18.329Z,15.30
2022-10-14T00:18:47.701Z,15.30
2022-10-14T00:21:15.071Z,15.60
2022-10-14T00:23:42.239Z,15.00
2022-10-14T00:26:17.839Z,13.40
2022-10-14T00:28:45.137Z,13.40
2022-10-14T00:31:12.466Z,15.73
2022-10-14T00:33:39.678Z,13.80
2022-10-14T00:36:08.304Z,15.17
2022-10-14T00:38:36.257Z,13.33
2022-10-14T00:41:03.883Z,13.43
2022-10-14T00:43:52.806Z,13.10
2022-10-14T00:46:20.080Z,12.60
2022-10-14T00:48:47.458Z,12.50
2022-10-14T00:51:14.965Z,12.53
2022-10-14T00:53:43.518Z,13.13
2022-10-14T00:56:16.355Z,12.43
2022-10-14T00:58:45.296Z,12.30
2022-10-14T01:01:12.546Z,12.27
2022-10-14T01:03:40.699Z,13.37
2022-10-14T01:06:23.780Z,11.17
2022-10-14T01:08:57.620Z,12.13
2022-10-14T01:11:36.841Z,12.77
2022-10-14T01:14:23.247Z,11.17
2022-10-14T01:17:41.260Z,13.00
2022-10-14T01:20:25.893Z,10.73
2022-10-14T01:22:58.734Z,10.20
2022-10-14T01:25:34.454Z,12.17
2022-10-14T01:28:23.699Z,10.77
2022-10-14T01:31:02.061Z,11.13
2022-10-14T01:33:38.055Z,11.53
2022-10-14T01:36:11.716Z,10.27
2022-10-14T01:38:48.213Z,11.33
2022-10-14T01:41:20.163Z,10.20
2022-10-14T01:43:50.595Z,9.40
2022-10-14T01:46:20.613Z,9.67
2022-10-14T01:48:53.635Z,9.90
2022-10-14T01:51:30.256Z,9.57
2022-10-14T01:54:05.404Z,9.00
2022-10-14T01:56:37.084Z,8.63
2022-10-14T01:59:10.878Z,9.37
2022-10-14T02:01:38.287Z,8.70
2022-10-14T02:04:19.056Z,8.30
2022-10-14T02:07:03.335Z,7.33
2022-10-14T02:09:51.016Z,8.90
2022-10-14T02:12:24.116Z,8.00
2022-10-14T02:15:17.767Z,9.23
2022-10-14T02:18:14.904Z,8.10
2022-10-14T02:20:43.216Z,8.43
2022-10-14T02:23:20.683Z,7.63
2022-10-14T02:25:51.648Z,7.00
2022-10-14T02:28:21.391Z,8.23
2022-10-14T02:30:57.136Z,8.90
2022-10-14T02:33:29.032Z,7.73
2022-10-14T02:35:57.018Z,8.43
2022-10-14T02:38:26.515Z,7.60
2022-10-14T02:40:54.012Z,8.77
2022-10-14T02:43:21.246Z,7.53
2022-10-14T02:45:48.364Z,8.90
2022-10-14T02:48:15.424Z,9.83
2022-10-14T02:50:42.776Z,7.80
2022-10-14T02:53:14.706Z,8.73
2022-10-14T02:55:41.828Z,9.30
2022-10-14T02:58:09.101Z,7.43
2022-10-14T03:00:36.250Z,8.43
2022-10-14T03:03:03.593Z,9.00
2022-10-14T03:05:30.742Z,8.07
2022-10-14T03:07:57.816Z,7.77
2022-10-14T03:10:24.968Z,7.07
2022-10-14T03:12:52.095Z,8.73
2022-10-14T03:15:19.238Z,7.43
2022-10-14T03:17:46.424Z,9.30
2022-10-14T03:20:13.599Z,9.13
2022-10-14T03:22:40.761Z,7.77
2022-10-14T03:25:08.517Z,8.10
2022-10-14T03:27:35.556Z,8.87
2022-10-14T03:30:02.753Z,8.00
2022-10-14T03:32:30.041Z,9.03
2022-10-14T03:34:57.828Z,7.90
2022-10-14T03:37:25.213Z,8.00
2022-10-14T03:39:53.170Z,8.80
2022-10-14T03:42:20.608Z,8.00
2022-10-14T03:44:47.932Z,8.10
2022-10-14T03:47:15.071Z,7.70
2022-10-14T03:49:42.197Z,8.13
2022-10-14T03:52:09.621Z,7.93
2022-10-14T03:54:36.737Z,8.13
2022-10-14T03:57:04.205Z,8.00
2022-10-14T03:59:31.252Z,7.43
2022-10-14T04:01:58.476Z,7.73
2022-10-14T04:04:25.725Z,7.90
2022-10-14T04:06:52.970Z,8.50
2022-10-14T04:09:20.286Z,7.63
2022-10-14T04:11:47.583Z,8.23
2022-10-14T04:14:14.976Z,8.37
2022-10-14T04:16:44.952Z,8.00
2022-10-14T04:19:16.448Z,8.13
2022-10-14T04:21:43.552Z,8.50
2022-10-14T04:24:11.244Z,8.37
2022-10-14T04:26:38.487Z,7.10
2022-10-14T04:29:05.578Z,6.33
2022-10-14T04:31:32.712Z,8.20
2022-10-14T04:34:00.194Z,8.00
2022-10-14T04:36:27.255Z,6.87
2022-10-14T04:38:54.405Z,7.20
2022-10-14T04:41:21.603Z,7.00
2022-10-14T04:43:48.837Z,7.13
2022-10-14T04:46:15.927Z,7.60
2022-10-14T04:48:43.023Z,7.00
2022-10-14T04:51:10.548Z,7.87
2022-10-14T04:53:37.708Z,6.97
2022-10-14T04:56:05.115Z,8.33
2022-10-14T04:58:32.320Z,7.53
2022-10-14T05:00:59.435Z,7.53
2022-10-14T05:03:26.585Z,7.73
2022-10-14T05:05:53.705Z,7.87
2022-10-14T05:08:20.769Z,7.37
2022-10-14T05:10:49.315Z,7.67
2022-10-14T05:13:17.709Z,7.20
2022-10-14T05:15:44.760Z,8.97
2022-10-14T05:18:12.466Z,8.70
2022-10-14T05:20:39.630Z,8.47
2022-10-14T05:23:07.029Z,8.40
2022-10-14T05:25:34.186Z,8.77
2022-10-14T05:28:01.351Z,8.67
2022-10-14T05:30:32.277Z,9.40
2022-10-14T05:33:01.812Z,8.47
2022-10-14T05:35:53.580Z,9.90
2022-10-14T05:38:16.127Z,9.80
2022-10-14T05:40:43.831Z,10.40
2022-10-14T05:43:10.864Z,10.77
2022-10-14T05:45:37.989Z,10.30
2022-10-14T05:48:05.566Z,10.80
2022-10-14T05:50:32.670Z,10.47
2022-10-14T05:53:01.716Z,11.13
2022-10-14T05:55:28.855Z,10.80
2022-10-14T05:57:56.888Z,10.70
2022-10-14T06:00:25.870Z,11.57
2022-10-14T06:02:53.273Z,10.57
2022-10-14T06:05:20.448Z,10.93
2022-10-14T06:07:47.605Z,10.70
2022-10-14T06:10:14.720Z,9.30
2022-10-14T06:12:42.107Z,10.90
2022-10-14T06:15:09.611Z,9.13
2022-10-14T06:17:36.816Z,11.10
2022-10-14T06:20:04.048Z,10.57
2022-10-14T06:22:31.155Z,9.53
2022-10-14T06:25:01.808Z,9.60
2022-10-14T06:27:31.442Z,11.10
2022-10-14T06:29:58.515Z,11.20
2022-10-14T06:32:25.710Z,9.77
2022-10-14T06:34:52.793Z,9.27
2022-10-14T06:37:19.912Z,10.30
2022-10-14T06:39:47.207Z,11.30
2022-10-14T06:42:14.392Z,11.50
2022-10-14T06:44:41.520Z,12.40
2022-10-14T06:47:08.998Z,10.70
2022-10-14T06:49:36.127Z,10.77
2022-10-14T06:52:03.513Z,9.80
2022-10-14T06:54:32.587Z,11.00
2022-10-14T06:57:01.584Z,11.07
2022-10-14T06:59:29.356Z,11.60
2022-10-14T07:01:56.687Z,11.00
2022-10-14T07:04:27.367Z,12.30
2022-10-14T07:06:57.483Z,12.00
2022-10-14T07:09:25.242Z,13.87
2022-10-14T07:11:52.352Z,15.40
2022-10-14T07:14:19.606Z,20.30
2022-10-14T07:16:46.739Z,35.57
2022-10-14T07:19:14.033Z,31.00
2022-10-14T07:21:42.936Z,28.07
2022-10-14T07:24:10.454Z,28.80
2022-10-14T07:26:37.588Z,27.80
2022-10-14T07:29:05.670Z,28.37
2022-10-14T07:31:34.793Z,25.83
2022-10-14T07:34:02.277Z,24.70
2022-10-14T07:36:29.572Z,22.83
2022-10-14T07:38:57.002Z,25.97
2022-10-14T07:41:25.457Z,25.27
2022-10-14T07:43:59.077Z,24.93
2022-10-14T07:46:34.902Z,22.00
2022-10-14T07:49:07.809Z,20.43
2022-10-14T07:51:35.690Z,21.20
2022-10-14T07:54:04.837Z,21.30
2022-10-14T07:56:32.062Z,21.10
2022-10-14T07:58:59.199Z,20.43
2022-10-14T08:01:26.515Z,20.67
2022-10-14T08:03:53.911Z,19.20
2022-10-14T08:06:21.679Z,21.57
2022-10-14T08:08:49.193Z,19.40
2022-10-14T08:11:26.336Z,17.10
2022-10-14T08:13:54.362Z,17.90
2022-10-14T08:16:26.886Z,19.53
2022-10-14T08:19:00.479Z,19.97
2022-10-14T08:21:28.184Z,19.97
2022-10-14T08:23:55.537Z,18.83
2022-10-14T08:26:28.417Z,19.53
2022-10-14T08:28:55.684Z,19.00
2022-10-14T08:31:23.333Z,19.07
2022-10-14T08:33:50.948Z,18.97
2022-10-14T08:36:19.108Z,19.83
2022-10-14T08:38:46.945Z,19.23
2022-10-14T08:41:23.378Z,18.37
2022-10-14T08:44:11.931Z,18.70
2022-10-14T08:46:52.376Z,20.27
2022-10-14T08:49:26.433Z,19.63
2022-10-14T08:52:04.079Z,18.93
2022-10-14T08:54:38.800Z,16.40
2022-10-14T08:57:12.684Z,17.90
2022-10-14T08:59:42.295Z,17.00
2022-10-14T09:02:31.744Z,16.63
2022-10-14T09:05:00.067Z,15.93
2022-10-14T09:07:27.890Z,16.63
2022-10-14T09:10:11.649Z,16.00
2022-10-14T09:12:40.664Z,16.37
2022-10-14T09:15:16.753Z,14.93
2022-10-14T09:17:53.078Z,16.23
2022-10-14T09:20:25.155Z,15.67
2022-10-14T09:23:23.581Z,16.27
2022-10-14T09:26:07.332Z,16.10
2022-10-14T09:28:38.898Z,15.80
2022-10-14T09:31:10.459Z,16.50
2022-10-14T09:33:42.635Z,16.10
2022-10-14T09:36:22.550Z,18.27
2022-10-14T09:38:52.915Z,17.33
2022-10-14T09:41:30.577Z,14.93
2022-10-14T09:44:26.233Z,18.13
2022-10-14T09:46:57.680Z,15.77
2022-10-14T09:49:46.611Z,17.07
2022-10-14T09:52:34.351Z,15.27
2022-10-14T09:55:01.911Z,17.20
2022-10-14T09:57:29.228Z,16.60
2022-10-14T10:00:02.058Z,14.90
2022-10-14T10:02:42.401Z,17.70
2022-10-14T10:05:32.463Z,16.60
2022-10-14T10:08:16.182Z,16.47
2022-10-14T10:11:03.551Z,17.30
2022-10-14T10:13:44.824Z,18.03
2022-10-14T10:16:21.378Z,16.30
2022-10-14T10:18:49.994Z,16.30
2022-10-14T10:21:30.336Z,16.57
2022-10-14T10:24:02.919Z,16.17
2022-10-14T10:26:34.832Z,16.83
2022-10-14T10:29:04.917Z,15.50
2022-10-14T10:32:12.200Z,16.60
2022-10-14T10:35:33.186Z,14.83
2022-10-14T10:38:15.396Z,15.70
2022-10-14T10:41:16.460Z,16.50
2022-10-14T10:43:49.264Z,15.33
2022-10-14T10:46:31.655Z,19.40
2022-10-14T10:49:10.349Z,16.40
2022-10-14T10:51:58.022Z,19.27
2022-10-14T10:54:46.547Z,21.70
2022-10-14T10:57:30.339Z,21.83
2022-10-14T11:00:12.761Z,21.83
2022-10-14T11:03:17.173Z,22.20
2022-10-14T11:05:53.064Z,20.67
2022-10-14T11:09:23.591Z,20.30
2022-10-14T11:12:12.955Z,19.37
2022-10-14T11:14:58.477Z,18.50
2022-10-14T11:17:44.029Z,20.30
2022-10-14T11:20:43.528Z,19.00
2022-10-14T11:23:34.952Z,16.03
2022-10-14T11:26:20.725Z,16.13
2022-10-14T11:29:23.269Z,15.30
2022-10-14T11:32:04.120Z,15.13
2022-10-14T11:34:45.702Z,14.20
2022-10-14T11:37:31.578Z,15.90
2022-10-14T11:40:08.450Z,14.30
2022-10-14T11:43:03.710Z,14.53
2022-10-14T11:45:39.649Z,13.60
2022-10-14T11:48:21.061Z,13.60
2022-10-14T11:50:52.649Z,14.10
2022-10-14T11:53:58.123Z,12.53
2022-10-14T11:56:43.593Z,13.60
2022-10-14T11:59:36.803Z,11.80
2022-10-14T12:02:20.646Z,12.30
2022-10-14T12:05:10.673Z,11.83
2022-10-14T12:07:59.652Z,10.70
2022-10-14T12:10:59.338Z,11.53
2022-10-14T12:13:34.796Z,11.63
2022-10-14T12:16:05.605Z,10.53
2022-10-14T12:18:33.230Z,9.13
2022-10-14T12:21:12.598Z,10.47
2022-10-14T12:23:48.524Z,7.70
2022-10-14T12:26:24.900Z,8.83
2022-10-14T12:28:54.178Z,9.13
2022-10-14T12:31:28.124Z,8.20
2022-10-14T12:34:17.518Z,7.10
2022-10-14T12:36:50.782Z,6.33
2022-10-14T12:39:17.938Z,7.40
2022-10-14T12:42:10.994Z,6.40
2022-10-14T12:44:55.695Z,7.37
2022-10-14T12:47:35.303Z,6.13
2022-10-14T12:50:06.340Z,5.73
2022-10-14T12:52:39.077Z,7.73
2022-10-14T12:55:21.217Z,6.87
2022-10-14T12:58:02.952Z,7.00
2022-10-14T13:00:36.090Z,6.23
2022-10-14T13:03:05.315Z,4.43
2022-10-14T13:05:34.570Z,6.90
2022-10-14T13:08:10.483Z,6.30
2022-10-14T13:10:45.982Z,6.57
2022-10-14T13:13:38.826Z,5.50
2022-10-14T13:16:21.175Z,6.50
2022-10-14T13:19:00.323Z,7.10
2022-10-14T13:21:39.125Z,6.23
2022-10-14T13:24:26.434Z,5.03
2022-10-14T13:26:53.704Z,5.40
2022-10-14T13:29:20.761Z,4.37
2022-10-14T13:32:21.165Z,5.97
2022-10-14T13:35:09.057Z,4.83
2022-10-14T13:38:00.214Z,5.73
2022-10-14T13:40:34.865Z,5.33
2022-10-14T13:43:37.860Z,4.87
2022-10-14T13:46:07.625Z,3.70
2022-10-14T13:48:45.498Z,4.00
2022-10-14T13:51:32.012Z,4.47
2022-10-14T13:54:19.285Z,3.73
2022-10-14T13:57:43.064Z,4.17
2022-10-14T14:00:43.661Z,4.47
2022-10-14T14:03:40.117Z,6.07
2022-10-14T14:06:32.457Z,4.63
2022-10-14T14:09:08.087Z,5.07
2022-10-14T14:11:37.994Z,5.83
2022-10-14T14:14:30.027Z,5.97
2022-10-14T14:16:59.375Z,5.90
2022-10-14T14:19:35.617Z,7.43
2022-10-14T14:22:17.921Z,5.47
2022-10-14T14:24:46.501Z,7.90
2022-10-14T14:27:21.458Z,7.53
2022-10-14T14:29:51.214Z,8.27
2022-10-14T14:32:22.388Z,7.77
2022-10-14T14:37:55.556Z,8.37
2022-10-14T14:40:26.062Z,8.70
2022-10-14T14:42:58.142Z,9.43
2022-10-14T14:45:31.214Z,8.07
2022-10-14T14:48:03.573Z,7.47
2022-10-14T14:50:36.655Z,7.63
2022-10-14T14:53:10.572Z,7.30
2022-10-14T14:55:57.126Z,7.20
2022-10-14T14:58:30.094Z,7.33
2022-10-14T15:00:57.663Z,6.73
2022-10-14T15:03:27.649Z,8.50
2022-10-14T15:06:06.016Z,7.80
2022-10-14T15:08:36.934Z,7.97
2022-10-14T15:11:04.675Z,8.97
2022-10-14T15:13:40.945Z,8.87
2022-10-14T15:16:08.435Z,8.90
2022-10-14T15:18:37.988Z,8.17
2022-10-14T15:21:09.590Z,9.00
2022-10-14T15:23:43.022Z,9.60
2022-10-14T15:26:28.325Z,8.30
2022-10-14T15:29:08.654Z,8.70
2022-10-14T15:31:37.200Z,9.13
2022-10-14T15:34:05.685Z,8.70
2022-10-14T15:36:34.849Z,8.70
2022-10-14T15:39:02.633Z,7.50
2022-10-14T15:41:29.811Z,9.30
2022-10-14T15:43:56.997Z,9.00
2022-10-14T15:46:42.547Z,9.80
2022-10-14T15:49:16.787Z,10.33
2022-10-14T15:51:43.977Z,10.37
2022-10-14T15:54:14.742Z,10.60
2022-10-14T15:56:41.823Z,9.57
2022-10-14T15:59:09.057Z,10.10
2022-10-14T16:01:38.323Z,10.77
2022-10-14T16:04:22.587Z,10.90
2022-10-14T16:06:50.707Z,11.40
2022-10-14T16:09:17.851Z,11.00
2022-10-14T16:11:44.980Z,11.00
2022-10-14T16:14:13.428Z,10.47
2022-10-14T16:16:44.319Z,10.00
2022-10-14T16:19:11.993Z,10.37
2022-10-14T16:21:40.533Z,10.47
2022-10-14T16:26:39.142Z,10.60
2022-10-14T16:29:06.664Z,10.13
2022-10-14T16:31:33.742Z,12.30
2022-10-14T16:34:02.050Z,12.50
2022-10-14T16:36:29.521Z,11.77
2022-10-14T16:38:57.034Z,12.53
2022-10-14T16:41:24.562Z,11.00
2022-10-14T16:43:51.717Z,11.67
2022-10-14T16:46:18.793Z,11.90
2022-10-14T16:48:45.988Z,14.30
2022-10-14T16:51:13.114Z,12.20
2022-10-14T16:53:48.875Z,12.10
2022-10-14T16:56:39.680Z,13.67
2022-10-14T16:59:10.496Z,16.20
2022-10-14T17:01:38.545Z,15.20
2022-10-14T17:04:06.075Z,15.97
2022-10-14T17:06:33.179Z,15.03
2022-10-14T17:09:00.466Z,16.40
2022-10-14T17:11:29.272Z,15.20
2022-10-14T17:13:58.203Z,16.47
2022-10-14T17:16:28.586Z,16.90
2022-10-14T17:18:56.702Z,16.17
2022-10-14T17:21:24.512Z,17.43
2022-10-14T17:23:51.611Z,17.40
2022-10-14T17:26:19.511Z,16.33
2022-10-14T17:28:50.881Z,20.43
2022-10-14T17:31:21.020Z,18.37
2022-10-14T17:33:48.549Z,17.67
2022-10-14T17:36:23.070Z,17.00
2022-10-14T17:38:52.833Z,16.50
2022-10-14T17:41:20.150Z,17.60
2022-10-14T17:43:52.563Z,19.97
2022-10-14T17:46:23.566Z,19.57
2022-10-14T17:48:53.062Z,18.90
2022-10-14T17:51:25.447Z,22.70
2022-10-14T17:54:01.107Z,18.50
2022-10-14T17:56:29.616Z,18.47
2022-10-14T17:58:59.369Z,18.93
2022-10-14T18:01:37.342Z,19.77
2022-10-14T18:04:15.912Z,20.13
2022-10-14T18:06:45.126Z,20.47
2022-10-14T18:09:12.546Z,21.00
2022-10-14T18:14:33.145Z,20.20
2022-10-14T18:17:00.334Z,20.67
2022-10-14T18:19:27.781Z,21.40
2022-10-14T18:21:54.840Z,20.53
2022-10-14T18:24:21.959Z,20.17
2022-10-14T18:26:52.621Z,20.83
2022-10-14T18:29:19.959Z,20.47
2022-10-14T18:31:49.519Z,21.10
2022-10-14T18:34:16.978Z,22.10
2022-10-14T18:36:44.163Z,20.47
2022-10-14T18:39:12.428Z,22.10
2022-10-14T18:41:40.089Z,23.77
2022-10-14T18:44:07.575Z,20.97
2022-10-14T18:46:38.667Z,21.60
2022-10-14T18:49:08.248Z,21.20
2022-10-14T18:51:37.507Z,22.40
2022-10-14T18:54:12.459Z,20.70
2022-10-14T18:56:39.700Z,22.10
2022-10-14T18:59:09.907Z,22.57
2022-10-14T19:01:38.351Z,22.90
2022-10-14T19:04:07.806Z,22.47
2022-10-14T19:06:35.928Z,22.67
2022-10-14T19:09:04.110Z,20.33
2022-10-14T19:11:33.442Z,21.23
2022-10-14T19:14:03.813Z,20.30
2022-10-14T19:16:38.651Z,21.57
2022-10-14T19:19:18.331Z,20.27
2022-10-14T19:21:48.045Z,22.50
2022-10-14T19:24:15.321Z,22.20
2022-10-14T19:26:45.231Z,21.43
2022-10-14T19:29:14.704Z,22.47
2022-10-14T19:31:43.765Z,24.60
2022-10-14T19:34:14.269Z,23.00
2022-10-14T19:36:42.962Z,23.40
2022-10-14T19:39:13.479Z,23.33
2022-10-14T19:41:44.953Z,21.67
2022-10-14T19:44:14.328Z,23.47
2022-10-14T19:46:42.366Z,22.30
2022-10-14T19:49:12.640Z,21.57
2022-10-14T19:51:39.991Z,21.70
2022-10-14T19:54:07.652Z,23.53
2022-10-14T19:56:34.837Z,20.57
2022-10-14T19:59:02.086Z,23.90
2022-10-14T20:01:30.616Z,22.00
2022-10-14T20:04:00.353Z,23.63
2022-10-14T20:06:29.364Z,23.80
2022-10-14T20:08:56.570Z,26.30
2022-10-14T20:11:24.993Z,24.13
2022-10-14T20:13:52.094Z,24.40
2022-10-14T20:16:19.436Z,23.47
2022-10-14T20:18:49.360Z,24.83
2022-10-14T20:21:16.960Z,23.77
2022-10-14T20:23:44.874Z,23.77
2022-10-14T20:26:21.240Z,21.17
2022-10-14T20:28:50.016Z,23.97
2022-10-14T20:31:20.431Z,22.80
2022-10-14T20:33:47.969Z,21.70
2022-10-14T20:36:17.521Z,22.37
2022-10-14T20:38:45.087Z,22.97
2022-10-14T20:41:13.661Z,22.60
2022-10-14T20:43:42.967Z,21.67
2022-10-14T20:46:10.602Z,21.37
2022-10-14T20:48:38.107Z,21.20
2022-10-14T20:51:10.662Z,21.10
2022-10-14T20:53:37.909Z,20.07
2022-10-14T20:56:11.237Z,20.93
2022-10-14T20:58:38.626Z,22.27
2022-10-14T21:01:05.857Z,21.10
2022-10-14T21:03:33.206Z,21.43
2022-10-14T21:06:05.605Z,21.10
2022-10-14T21:08:36.180Z,19.30
2022-10-14T21:11:09.171Z,21.90
2022-10-14T21:13:40.767Z,21.07
2022-10-14T21:16:15.936Z,19.90
2022-10-14T21:18:55.106Z,19.23
2022-10-14T21:21:27.168Z,19.83
2022-10-14T21:23:55.338Z,19.47
2022-10-14T21:26:22.865Z,19.30
2022-10-14T21:28:50.148Z,18.40
2022-10-14T21:31:19.279Z,20.67
2022-10-14T21:33:56.242Z,19.07
2022-10-14T21:36:25.140Z,20.67
2022-10-14T21:38:52.625Z,19.03
2022-10-14T21:41:19.835Z,18.93
2022-10-14T21:43:47.434Z,16.67
2022-10-14T21:46:15.940Z,17.73
2022-10-14T21:48:45.105Z,19.27
2022-10-14T21:51:15.044Z,16.53
2022-10-14T21:53:44.457Z,18.33
2022-10-14T21:56:13.193Z,16.63
2022-10-14T21:58:40.881Z,17.80
2022-10-14T22:01:28.381Z,18.10
2022-10-14T22:04:05.894Z,16.47
2022-10-14T22:06:34.986Z,16.00
2022-10-14T22:09:04.568Z,16.77
2022-10-14T22:11:34.481Z,16.80
2022-10-14T22:14:03.337Z,16.87
2022-10-14T22:16:31.383Z,16.70
2022-10-14T22:19:00.504Z,16.17
2022-10-14T22:21:29.984Z,17.17
2022-10-14T22:23:58.528Z,17.90
2022-10-14T22:26:27.159Z,16.17
2022-10-14T22:29:10.599Z,17.47
2022-10-14T22:31:37.929Z,16.77
2022-10-14T22:34:06.696Z,16.00
2022-10-14T22:36:34.900Z,16.50
2022-10-14T22:39:05.187Z,17.03
2022-10-14T22:41:35.537Z,17.03
2022-10-14T22:44:05.027Z,17.40
2022-10-14T22:46:33.809Z,17.80
2022-10-14T22:49:02.060Z,18.17
2022-10-14T22:51:38.001Z,18.50
2022-10-14T22:54:05.205Z,19.50
2022-10-14T22:56:32.749Z,18.60
2022-10-14T22:59:05.368Z,18.50
2022-10-14T23:01:32.780Z,18.53
2022-10-14T23:04:00.608Z,20.03
2022-10-14T23:06:28.357Z,19.40
2022-10-14T23:08:55.600Z,19.57
2022-10-14T23:11:24.954Z,20.07
2022-10-14T23:13:52.216Z,19.20
2022-10-14T23:16:25.396Z,19.47
2022-10-14T23:18:53.421Z,19.60
2022-10-14T23:21:35.225Z,20.13
2022-10-14T23:24:05.949Z,21.60
2022-10-14T23:26:37.114Z,20.60
2022-10-14T23:29:11.633Z,22.87
2022-10-14T23:31:40.189Z,21.40
2022-10-14T23:34:11.648Z,18.87
2022-10-14T23:36:39.452Z,21.90
2022-10-14T23:39:06.835Z,20.03
2022-10-14T23:41:33.885Z,21.27
2022-10-14T23:44:01.160Z,20.90
2022-10-14T23:46:28.309Z,22.63
2022-10-14T23:49:06.977Z,22.47
2022-10-14T23:51:41.755Z,22.80
2022-10-14T23:54:09.067Z,22.10
2022-10-14T23:56:36.152Z,23.20
2022-10-14T23:59:03.273Z,22.93
